sensor_id;sensor_type;location;lat;lon;timestamp;P1;durP1;ratioP1;P2;durP2;ratioP2
9898;SDS011;4988;49.238;6.698;2022-10-31T00:02:16;19.30;;;9.83;;
9898;SDS011;4988;49.238;6.698;2022-10-31T00:04:41;19.10;;;8.63;;
9898;SDS011;4988;49.238;6.698;2022-10-31T00:07:06;25.77;;;8.67;;
9898;SDS011;4988;49.238;6.698;2022-10-31T00:09:32;18.37;;;8.33;;
9898;SDS011;4988;49.238;6.698;2022-10-31T00:11:57;19.10;;;8.07;;
9898;SDS011;4988;49.238;6.698;2022-10-31T00:14:22;21.77;;;8.47;;
9898;SDS011;4988;49.238;6.698;2022-10-31T00:16:47;17.33;;;7.87;;
9898;SDS011;4988;49.238;6.698;2022-10-31T00:19:13;16.10;;;7.80;;
9898;SDS011;4988;49.238;6.698;2022-10-31T00:21:38;14.70;;;7.53;;
9898;SDS011;4988;49.238;6.698;2022-10-31T00:24:03;17.27;;;7.87;;
9898;SDS011;4988;49.238;6.698;2022-10-31T00:26:30;14.57;;;7.80;;
9898;SDS011;4988;49.238;6.698;2022-10-31T00:28:56;17.30;;;7.27;;
9898;SDS011;4988;49.238;6.698;2022-10-31T00:31:22;17.97;;;7.10;;
9898;SDS011;4988;49.238;6.698;2022-10-31T00:33:47;12.53;;;6.63;;
9898;SDS011;4988;49.238;6.698;2022-10-31T00:36:14;15.33;;;6.67;;
9898;SDS011;4988;49.238;6.698;2022-10-31T00:38:42;18.37;;;7.63;;
9898;SDS011;4988;49.238;6.698;2022-10-31T00:41:08;16.10;;;7.00;;
9898;SDS011;4988;49.238;6.698;2022-10-31T00:43:34;19.07;;;7.33;;
9898;SDS011;4988;49.238;6.698;2022-10-31T00:46:00;15.17;;;7.10;;
9898;SDS011;4988;49.238;6.698;2022-10-31T00:48:25;15.17;;;6.37;;
9898;SDS011;4988;49.238;6.698;2022-10-31T00:50:50;18.00;;;7.70;;
9898;SDS011;4988;49.238;6.698;2022-10-31T00:53:16;15.80;;;7.50;;
9898;SDS011;4988;49.238;6.698;2022-10-31T00:55:41;16.30;;;7.20;;
9898;SDS011;4988;49.238;6.698;2022-10-31T00:58:06;18.87;;;7.20;;
9898;SDS011;4988;49.238;6.698;2022-10-31T01:00:32;16.00;;;7.03;;
9898;SDS011;4988;49.238;6.698;2022-10-31T01:02:57;20.17;;;7.90;;
9898;SDS011;4988;49.238;6.698;2022-10-31T01:05:23;16.37;;;7.60;;
9898;SDS011;4988;49.238;6.698;2022-10-31T01:07:48;21.83;;;7.93;;
9898;SDS011;4988;49.238;6.698;2022-10-31T01:10:13;16.03;;;7.20;;
9898;SDS011;4988;49.238;6.698;2022-10-31T01:12:39;21.57;;;8.80;;
9898;SDS011;4988;49.238;6.698;2022-10-31T01:15:11;20.17;;;8.70;;
9898;SDS011;4988;49.238;6.698;2022-10-31T01:17:38;17.27;;;8.00;;
9898;SDS011;4988;49.238;6.698;2022-10-31T01:20:04;17.83;;;9.20;;
9898;SDS011;4988;49.238;6.698;2022-10-31T01:22:31;21.37;;;9.23;;
9898;SDS011;4988;49.238;6.698;2022-10-31T01:24:57;20.97;;;8.73;;
9898;SDS011;4988;49.238;6.698;2022-10-31T01:27:22;13.80;;;7.60;;
9898;SDS011;4988;49.238;6.698;2022-10-31T01:29:48;17.10;;;8.87;;
9898;SDS011;4988;49.238;6.698;2022-10-31T01:32:13;19.03;;;7.97;;
9898;SDS011;4988;49.238;6.698;2022-10-31T01:34:38;19.63;;;8.70;;
9898;SDS011;4988;49.238;6.698;2022-10-31T01:37:04;19.27;;;7.80;;
9898;SDS011;4988;49.238;6.698;2022-10-31T01:39:29;18.90;;;8.30;;
9898;SDS011;4988;49.238;6.698;2022-10-31T01:41:54;23.83;;;8.30;;
9898;SDS011;4988;49.238;6.698;2022-10-31T01:46:50;16.07;;;7.90;;
9898;SDS011;4988;49.238;6.698;2022-10-31T01:54:25;22.87;;;7.40;;
9898;SDS011;4988;49.238;6.698;2022-10-31T01:56:57;24.50;;;8.43;;
9898;SDS011;4988;49.238;6.698;2022-10-31T01:59:25;19.50;;;8.20;;
9898;SDS011;4988;49.238;6.698;2022-10-31T02:01:55;16.30;;;7.97;;
9898;SDS011;4988;49.238;6.698;2022-10-31T02:04:20;21.60;;;7.67;;
9898;SDS011;4988;49.238;6.698;2022-10-31T02:06:51;14.63;;;7.93;;
9898;SDS011;4988;49.238;6.698;2022-10-31T02:09:21;21.87;;;8.10;;
9898;SDS011;4988;49.238;6.698;2022-10-31T02:11:51;16.60;;;7.47;;
9898;SDS011;4988;49.238;6.698;2022-10-31T02:14:21;18.53;;;7.07;;
9898;SDS011;4988;49.238;6.698;2022-10-31T02:16:48;17.40;;;7.07;;
9898;SDS011;4988;49.238;6.698;2022-10-31T02:19:15;16.60;;;7.27;;
9898;SDS011;4988;49.238;6.698;2022-10-31T02:21:54;17.53;;;7.90;;
9898;SDS011;4988;49.238;6.698;2022-10-31T02:30:11;18.83;;;7.70;;
9898;SDS011;4988;49.238;6.698;2022-10-31T02:37:51;20.37;;;7.40;;
9898;SDS011;4988;49.238;6.698;2022-10-31T02:45:38;20.30;;;7.20;;
9898;SDS011;4988;49.238;6.698;2022-10-31T02:48:26;18.63;;;6.97;;
9898;SDS011;4988;49.238;6.698;2022-10-31T02:50:56;14.83;;;7.07;;
9898;SDS011;4988;49.238;6.698;2022-10-31T02:53:25;16.90;;;7.33;;
9898;SDS011;4988;49.238;6.698;2022-10-31T02:55:54;15.47;;;7.40;;
9898;SDS011;4988;49.238;6.698;2022-10-31T02:58:24;17.27;;;7.53;;
9898;SDS011;4988;49.238;6.698;2022-10-31T03:03:47;16.60;;;7.33;;
9898;SDS011;4988;49.238;6.698;2022-10-31T03:06:32;26.27;;;8.43;;
9898;SDS011;4988;49.238;6.698;2022-10-31T03:09:11;15.60;;;7.57;;
9898;SDS011;4988;49.238;6.698;2022-10-31T03:11:43;18.53;;;6.83;;
9898;SDS011;4988;49.238;6.698;2022-10-31T03:14:24;18.37;;;7.60;;
9898;SDS011;4988;49.238;6.698;2022-10-31T03:17:16;18.20;;;7.33;;
9898;SDS011;4988;49.238;6.698;2022-10-31T03:19:47;15.20;;;7.47;;
9898;SDS011;4988;49.238;6.698;2022-10-31T03:22:21;13.77;;;7.27;;
9898;SDS011;4988;49.238;6.698;2022-10-31T03:24:50;17.20;;;7.67;;
9898;SDS011;4988;49.238;6.698;2022-10-31T03:27:24;25.77;;;11.73;;
9898;SDS011;4988;49.238;6.698;2022-10-31T03:29:52;81.73;;;38.17;;
9898;SDS011;4988;49.238;6.698;2022-10-31T03:32:24;75.70;;;36.63;;
9898;SDS011;4988;49.238;6.698;2022-10-31T03:34:54;53.17;;;25.93;;
9898;SDS011;4988;49.238;6.698;2022-10-31T03:37:24;44.13;;;22.23;;
9898;SDS011;4988;49.238;6.698;2022-10-31T03:39:52;37.90;;;19.07;;
9898;SDS011;4988;49.238;6.698;2022-10-31T03:42:24;31.67;;;16.53;;
9898;SDS011;4988;49.238;6.698;2022-10-31T03:44:56;27.17;;;14.27;;
9898;SDS011;4988;49.238;6.698;2022-10-31T03:47:26;26.53;;;9.90;;
9898;SDS011;4988;49.238;6.698;2022-10-31T03:49:51;24.30;;;10.23;;
9898;SDS011;4988;49.238;6.698;2022-10-31T03:54:54;19.40;;;8.83;;
9898;SDS011;4988;49.238;6.698;2022-10-31T03:57:26;24.60;;;9.37;;
9898;SDS011;4988;49.238;6.698;2022-10-31T04:02:30;23.53;;;11.23;;
9898;SDS011;4988;49.238;6.698;2022-10-31T04:04:57;22.40;;;10.83;;
9898;SDS011;4988;49.238;6.698;2022-10-31T04:07:23;22.97;;;11.40;;
9898;SDS011;4988;49.238;6.698;2022-10-31T04:09:53;23.73;;;11.67;;
9898;SDS011;4988;49.238;6.698;2022-10-31T04:12:18;23.73;;;11.03;;
9898;SDS011;4988;49.238;6.698;2022-10-31T04:14:47;22.47;;;11.17;;
9898;SDS011;4988;49.238;6.698;2022-10-31T04:17:14;21.70;;;10.57;;
9898;SDS011;4988;49.238;6.698;2022-10-31T04:19:43;18.93;;;8.50;;
9898;SDS011;4988;49.238;6.698;2022-10-31T04:22:08;18.47;;;7.90;;
9898;SDS011;4988;49.238;6.698;2022-10-31T04:24:33;23.53;;;8.90;;
9898;SDS011;4988;49.238;6.698;2022-10-31T04:26:59;14.80;;;7.57;;
9898;SDS011;4988;49.238;6.698;2022-10-31T04:29:24;19.57;;;7.23;;
9898;SDS011;4988;49.238;6.698;2022-10-31T04:31:49;14.83;;;7.17;;
9898;SDS011;4988;49.238;6.698;2022-10-31T04:34:15;14.13;;;6.93;;
9898;SDS011;4988;49.238;6.698;2022-10-31T04:36:40;16.57;;;6.93;;
9898;SDS011;4988;49.238;6.698;2022-10-31T04:39:05;12.00;;;6.93;;
9898;SDS011;4988;49.238;6.698;2022-10-31T04:41:31;16.00;;;8.00;;
9898;SDS011;4988;49.238;6.698;2022-10-31T04:43:56;17.63;;;7.13;;
9898;SDS011;4988;49.238;6.698;2022-10-31T04:46:21;14.20;;;7.07;;
9898;SDS011;4988;49.238;6.698;2022-10-31T04:48:47;16.00;;;7.27;;
9898;SDS011;4988;49.238;6.698;2022-10-31T04:51:12;15.53;;;7.40;;
9898;SDS011;4988;49.238;6.698;2022-10-31T04:53:37;15.00;;;6.93;;
9898;SDS011;4988;49.238;6.698;2022-10-31T04:56:03;20.20;;;7.30;;
9898;SDS011;4988;49.238;6.698;2022-10-31T04:58:28;14.33;;;6.87;;
9898;SDS011;4988;49.238;6.698;2022-10-31T05:00:54;16.70;;;7.93;;
9898;SDS011;4988;49.238;6.698;2022-10-31T05:03:20;18.13;;;7.20;;
9898;SDS011;4988;49.238;6.698;2022-10-31T05:05:46;12.73;;;7.10;;
9898;SDS011;4988;49.238;6.698;2022-10-31T05:08:12;14.50;;;7.50;;
9898;SDS011;4988;49.238;6.698;2022-10-31T05:10:37;21.97;;;8.03;;
9898;SDS011;4988;49.238;6.698;2022-10-31T05:13:03;16.43;;;7.43;;
9898;SDS011;4988;49.238;6.698;2022-10-31T05:15:29;14.50;;;7.23;;
9898;SDS011;4988;49.238;6.698;2022-10-31T05:17:55;14.47;;;7.27;;
9898;SDS011;4988;49.238;6.698;2022-10-31T05:20:21;18.57;;;7.33;;
9898;SDS011;4988;49.238;6.698;2022-10-31T05:22:50;15.77;;;7.13;;
9898;SDS011;4988;49.238;6.698;2022-10-31T05:25:17;22.93;;;8.43;;
9898;SDS011;4988;49.238;6.698;2022-10-31T05:27:48;16.10;;;8.27;;
9898;SDS011;4988;49.238;6.698;2022-10-31T05:30:16;17.53;;;7.90;;
9898;SDS011;4988;49.238;6.698;2022-10-31T05:32:45;14.53;;;7.40;;
9898;SDS011;4988;49.238;6.698;2022-10-31T05:35:16;17.13;;;7.87;;
9898;SDS011;4988;49.238;6.698;2022-10-31T05:37:47;19.63;;;6.83;;
9898;SDS011;4988;49.238;6.698;2022-10-31T05:40:13;16.03;;;8.33;;
9898;SDS011;4988;49.238;6.698;2022-10-31T05:42:40;14.77;;;7.47;;
9898;SDS011;4988;49.238;6.698;2022-10-31T05:45:07;15.90;;;7.47;;
9898;SDS011;4988;49.238;6.698;2022-10-31T05:47:33;14.07;;;7.57;;
9898;SDS011;4988;49.238;6.698;2022-10-31T05:49:58;15.07;;;7.07;;
9898;SDS011;4988;49.238;6.698;2022-10-31T05:52:24;19.37;;;8.27;;
9898;SDS011;4988;49.238;6.698;2022-10-31T05:54:49;14.67;;;7.47;;
9898;SDS011;4988;49.238;6.698;2022-10-31T05:57:14;19.17;;;7.97;;
9898;SDS011;4988;49.238;6.698;2022-10-31T05:59:40;15.37;;;7.40;;
9898;SDS011;4988;49.238;6.698;2022-10-31T06:02:05;14.40;;;7.70;;
9898;SDS011;4988;49.238;6.698;2022-10-31T06:04:30;14.27;;;7.80;;
9898;SDS011;4988;49.238;6.698;2022-10-31T06:06:56;16.93;;;7.43;;
9898;SDS011;4988;49.238;6.698;2022-10-31T06:09:21;15.07;;;7.07;;
9898;SDS011;4988;49.238;6.698;2022-10-31T06:11:47;15.47;;;7.13;;
9898;SDS011;4988;49.238;6.698;2022-10-31T06:14:12;17.10;;;7.30;;
9898;SDS011;4988;49.238;6.698;2022-10-31T06:16:37;17.20;;;7.70;;
9898;SDS011;4988;49.238;6.698;2022-10-31T06:19:03;18.87;;;7.90;;
9898;SDS011;4988;49.238;6.698;2022-10-31T06:21:28;16.87;;;7.67;;
9898;SDS011;4988;49.238;6.698;2022-10-31T06:23:53;13.10;;;7.43;;
9898;SDS011;4988;49.238;6.698;2022-10-31T06:26:19;18.13;;;7.77;;
9898;SDS011;4988;49.238;6.698;2022-10-31T06:28:44;18.63;;;8.63;;
9898;SDS011;4988;49.238;6.698;2022-10-31T06:31:09;16.77;;;7.90;;
9898;SDS011;4988;49.238;6.698;2022-10-31T06:33:35;16.53;;;7.43;;
9898;SDS011;4988;49.238;6.698;2022-10-31T06:36:00;18.30;;;7.87;;
9898;SDS011;4988;49.238;6.698;2022-10-31T06:38:26;15.30;;;7.50;;
9898;SDS011;4988;49.238;6.698;2022-10-31T06:40:52;16.00;;;8.10;;
9898;SDS011;4988;49.238;6.698;2022-10-31T06:43:18;16.63;;;7.53;;
9898;SDS011;4988;49.238;6.698;2022-10-31T06:45:43;13.57;;;7.70;;
9898;SDS011;4988;49.238;6.698;2022-10-31T06:48:09;20.50;;;7.27;;
9898;SDS011;4988;49.238;6.698;2022-10-31T06:50:34;15.60;;;7.70;;
9898;SDS011;4988;49.238;6.698;2022-10-31T06:52:59;15.53;;;7.10;;
9898;SDS011;4988;49.238;6.698;2022-10-31T06:55:25;15.50;;;7.60;;
9898;SDS011;4988;49.238;6.698;2022-10-31T07:00:20;12.60;;;7.10;;
9898;SDS011;4988;49.238;6.698;2022-10-31T07:02:55;16.00;;;7.27;;
9898;SDS011;4988;49.238;6.698;2022-10-31T07:05:22;12.63;;;6.80;;
9898;SDS011;4988;49.238;6.698;2022-10-31T07:07:51;13.50;;;7.20;;
9898;SDS011;4988;49.238;6.698;2022-10-31T07:10:17;15.40;;;7.03;;
9898;SDS011;4988;49.238;6.698;2022-10-31T07:12:43;15.47;;;7.00;;
9898;SDS011;4988;49.238;6.698;2022-10-31T07:15:08;17.27;;;8.93;;
9898;SDS011;4988;49.238;6.698;2022-10-31T07:17:34;20.17;;;7.53;;
9898;SDS011;4988;49.238;6.698;2022-10-31T07:19:59;17.07;;;7.63;;
9898;SDS011;4988;49.238;6.698;2022-10-31T07:22:24;18.40;;;7.33;;
9898;SDS011;4988;49.238;6.698;2022-10-31T07:24:49;12.90;;;7.43;;
9898;SDS011;4988;49.238;6.698;2022-10-31T07:29:50;23.07;;;8.70;;
9898;SDS011;4988;49.238;6.698;2022-10-31T07:32:15;16.67;;;8.47;;
9898;SDS011;4988;49.238;6.698;2022-10-31T07:34:40;23.10;;;9.30;;
9898;SDS011;4988;49.238;6.698;2022-10-31T07:37:06;26.10;;;10.00;;
9898;SDS011;4988;49.238;6.698;2022-10-31T07:39:32;20.43;;;8.97;;
9898;SDS011;4988;49.238;6.698;2022-10-31T07:41:58;19.97;;;9.10;;
9898;SDS011;4988;49.238;6.698;2022-10-31T07:44:24;15.83;;;8.57;;
9898;SDS011;4988;49.238;6.698;2022-10-31T07:46:50;22.33;;;8.93;;
9898;SDS011;4988;49.238;6.698;2022-10-31T07:49:15;19.30;;;8.73;;
9898;SDS011;4988;49.238;6.698;2022-10-31T07:51:43;26.27;;;8.90;;
9898;SDS011;4988;49.238;6.698;2022-10-31T07:57:21;20.77;;;9.23;;
9898;SDS011;4988;49.238;6.698;2022-10-31T07:59:46;18.63;;;8.87;;
9898;SDS011;4988;49.238;6.698;2022-10-31T08:02:12;23.57;;;9.97;;
9898;SDS011;4988;49.238;6.698;2022-10-31T08:04:37;18.97;;;9.77;;
9898;SDS011;4988;49.238;6.698;2022-10-31T08:07:02;18.83;;;9.60;;
9898;SDS011;4988;49.238;6.698;2022-10-31T08:09:27;31.33;;;10.03;;
9898;SDS011;4988;49.238;6.698;2022-10-31T08:11:53;25.23;;;10.30;;
9898;SDS011;4988;49.238;6.698;2022-10-31T08:14:18;23.93;;;11.60;;
9898;SDS011;4988;49.238;6.698;2022-10-31T08:16:43;24.07;;;11.60;;
9898;SDS011;4988;49.238;6.698;2022-10-31T08:19:09;28.20;;;11.37;;
9898;SDS011;4988;49.238;6.698;2022-10-31T08:21:34;22.47;;;10.37;;
9898;SDS011;4988;49.238;6.698;2022-10-31T08:23:59;22.63;;;11.27;;
9898;SDS011;4988;49.238;6.698;2022-10-31T08:26:25;24.93;;;10.63;;
9898;SDS011;4988;49.238;6.698;2022-10-31T08:28:50;27.27;;;10.67;;
9898;SDS011;4988;49.238;6.698;2022-10-31T08:31:16;23.23;;;10.13;;
9898;SDS011;4988;49.238;6.698;2022-10-31T08:33:41;25.10;;;11.10;;
9898;SDS011;4988;49.238;6.698;2022-10-31T08:36:07;25.67;;;11.47;;
9898;SDS011;4988;49.238;6.698;2022-10-31T08:38:32;28.13;;;10.93;;
9898;SDS011;4988;49.238;6.698;2022-10-31T08:40:58;23.40;;;10.90;;
9898;SDS011;4988;49.238;6.698;2022-10-31T08:43:23;24.93;;;11.03;;
9898;SDS011;4988;49.238;6.698;2022-10-31T08:45:49;23.77;;;10.83;;
9898;SDS011;4988;49.238;6.698;2022-10-31T08:48:15;24.60;;;10.90;;
9898;SDS011;4988;49.238;6.698;2022-10-31T08:50:42;25.70;;;10.73;;
9898;SDS011;4988;49.238;6.698;2022-10-31T08:53:09;27.30;;;11.30;;
9898;SDS011;4988;49.238;6.698;2022-10-31T08:55:37;26.47;;;12.00;;
9898;SDS011;4988;49.238;6.698;2022-10-31T08:58:04;32.60;;;13.67;;
9898;SDS011;4988;49.238;6.698;2022-10-31T09:00:31;31.37;;;17.57;;
9898;SDS011;4988;49.238;6.698;2022-10-31T09:02:58;34.70;;;16.40;;
9898;SDS011;4988;49.238;6.698;2022-10-31T09:05:27;33.80;;;13.50;;
9898;SDS011;4988;49.238;6.698;2022-10-31T09:07:56;21.10;;;11.13;;
9898;SDS011;4988;49.238;6.698;2022-10-31T09:10:23;27.70;;;11.97;;
9898;SDS011;4988;49.238;6.698;2022-10-31T09:12:59;28.63;;;12.60;;
9898;SDS011;4988;49.238;6.698;2022-10-31T09:15:36;27.27;;;11.03;;
9898;SDS011;4988;49.238;6.698;2022-10-31T09:18:03;22.97;;;10.97;;
9898;SDS011;4988;49.238;6.698;2022-10-31T09:20:31;25.93;;;11.40;;
9898;SDS011;4988;49.238;6.698;2022-10-31T09:22:59;26.73;;;11.80;;
9898;SDS011;4988;49.238;6.698;2022-10-31T09:25:26;27.23;;;11.43;;
9898;SDS011;4988;49.238;6.698;2022-10-31T09:27:55;27.20;;;11.57;;
9898;SDS011;4988;49.238;6.698;2022-10-31T09:30:22;23.87;;;11.37;;
9898;SDS011;4988;49.238;6.698;2022-10-31T09:32:47;28.43;;;11.87;;
9898;SDS011;4988;49.238;6.698;2022-10-31T09:35:12;30.00;;;11.23;;
9898;SDS011;4988;49.238;6.698;2022-10-31T09:37:38;26.43;;;11.33;;
9898;SDS011;4988;49.238;6.698;2022-10-31T09:40:03;24.70;;;10.13;;
9898;SDS011;4988;49.238;6.698;2022-10-31T09:43:03;30.93;;;12.23;;
9898;SDS011;4988;49.238;6.698;2022-10-31T09:45:38;24.93;;;10.33;;
9898;SDS011;4988;49.238;6.698;2022-10-31T09:48:09;21.23;;;11.47;;
9898;SDS011;4988;49.238;6.698;2022-10-31T09:56:37;22.87;;;10.83;;
9898;SDS011;4988;49.238;6.698;2022-10-31T09:59:04;22.40;;;10.50;;
9898;SDS011;4988;49.238;6.698;2022-10-31T10:01:49;30.07;;;10.73;;
9898;SDS011;4988;49.238;6.698;2022-10-31T10:09:49;18.30;;;10.17;;
9898;SDS011;4988;49.238;6.698;2022-10-31T10:17:17;24.77;;;11.60;;
9898;SDS011;4988;49.238;6.698;2022-10-31T10:20:10;33.87;;;13.50;;
9898;SDS011;4988;49.238;6.698;2022-10-31T10:23:35;22.83;;;11.53;;
9898;SDS011;4988;49.238;6.698;2022-10-31T10:25:53;28.67;;;12.90;;
9898;SDS011;4988;49.238;6.698;2022-10-31T10:28:35;31.10;;;14.03;;
9898;SDS011;4988;49.238;6.698;2022-10-31T10:36:14;24.37;;;10.37;;
9898;SDS011;4988;49.238;6.698;2022-10-31T10:41:27;20.47;;;9.60;;
9898;SDS011;4988;49.238;6.698;2022-10-31T10:43:56;25.97;;;12.90;;
9898;SDS011;4988;49.238;6.698;2022-10-31T10:46:41;23.73;;;11.17;;
9898;SDS011;4988;49.238;6.698;2022-10-31T10:49:48;30.03;;;12.33;;
9898;SDS011;4988;49.238;6.698;2022-10-31T10:52:34;23.33;;;10.37;;
9898;SDS011;4988;49.238;6.698;2022-10-31T10:58:27;18.27;;;10.53;;
9898;SDS011;4988;49.238;6.698;2022-10-31T11:00:52;24.90;;;10.53;;
9898;SDS011;4988;49.238;6.698;2022-10-31T11:03:19;27.47;;;10.20;;
9898;SDS011;4988;49.238;6.698;2022-10-31T11:13:41;20.37;;;9.40;;
9898;SDS011;4988;49.238;6.698;2022-10-31T11:16:13;20.73;;;9.63;;
9898;SDS011;4988;49.238;6.698;2022-10-31T11:18:51;23.43;;;9.40;;
9898;SDS011;4988;49.238;6.698;2022-10-31T11:21:35;23.73;;;11.53;;
9898;SDS011;4988;49.238;6.698;2022-10-31T11:26:29;21.47;;;9.67;;
9898;SDS011;4988;49.238;6.698;2022-10-31T11:28:59;17.77;;;8.50;;
9898;SDS011;4988;49.238;6.698;2022-10-31T11:31:25;20.87;;;9.07;;
9898;SDS011;4988;49.238;6.698;2022-10-31T11:33:55;20.17;;;9.47;;
9898;SDS011;4988;49.238;6.698;2022-10-31T11:36:25;20.23;;;9.73;;
9898;SDS011;4988;49.238;6.698;2022-10-31T11:38:54;24.47;;;9.13;;
9898;SDS011;4988;49.238;6.698;2022-10-31T11:43:53;22.97;;;10.67;;
9898;SDS011;4988;49.238;6.698;2022-10-31T11:46:28;21.17;;;10.63;;
9898;SDS011;4988;49.238;6.698;2022-10-31T11:48:54;25.53;;;12.10;;
9898;SDS011;4988;49.238;6.698;2022-10-31T11:51:25;18.37;;;8.53;;
9898;SDS011;4988;49.238;6.698;2022-10-31T11:53:54;22.20;;;8.87;;
9898;SDS011;4988;49.238;6.698;2022-10-31T11:56:22;19.23;;;8.87;;
9898;SDS011;4988;49.238;6.698;2022-10-31T11:58:59;20.63;;;8.43;;
9898;SDS011;4988;49.238;6.698;2022-10-31T12:01:28;21.30;;;9.27;;
9898;SDS011;4988;49.238;6.698;2022-10-31T12:04:08;22.03;;;9.93;;
9898;SDS011;4988;49.238;6.698;2022-10-31T12:06:36;16.83;;;8.77;;
9898;SDS011;4988;49.238;6.698;2022-10-31T12:23:12;18.83;;;8.47;;
9898;SDS011;4988;49.238;6.698;2022-10-31T12:26:04;22.37;;;7.93;;
9898;SDS011;4988;49.238;6.698;2022-10-31T12:31:24;22.30;;;8.87;;
9898;SDS011;4988;49.238;6.698;2022-10-31T12:37:00;19.40;;;7.87;;
9898;SDS011;4988;49.238;6.698;2022-10-31T12:45:42;19.33;;;7.40;;
9898;SDS011;4988;49.238;6.698;2022-10-31T12:51:00;17.10;;;7.43;;
9898;SDS011;4988;49.238;6.698;2022-10-31T12:53:37;15.33;;;6.97;;
9898;SDS011;4988;49.238;6.698;2022-10-31T12:58:56;17.77;;;7.13;;
9898;SDS011;4988;49.238;6.698;2022-10-31T13:01:24;15.20;;;6.70;;
9898;SDS011;4988;49.238;6.698;2022-10-31T13:07:00;19.53;;;6.77;;
9898;SDS011;4988;49.238;6.698;2022-10-31T13:09:34;17.33;;;6.77;;
9898;SDS011;4988;49.238;6.698;2022-10-31T13:12:14;18.90;;;7.13;;
9898;SDS011;4988;49.238;6.698;2022-10-31T13:14:44;19.90;;;6.83;;
9898;SDS011;4988;49.238;6.698;2022-10-31T13:17:18;16.20;;;6.90;;
9898;SDS011;4988;49.238;6.698;2022-10-31T13:19:49;13.20;;;6.93;;
9898;SDS011;4988;49.238;6.698;2022-10-31T13:22:17;15.03;;;6.83;;
9898;SDS011;4988;49.238;6.698;2022-10-31T13:24:54;21.93;;;7.77;;
9898;SDS011;4988;49.238;6.698;2022-10-31T13:27:33;15.87;;;6.93;;
9898;SDS011;4988;49.238;6.698;2022-10-31T13:30:21;15.13;;;6.37;;
9898;SDS011;4988;49.238;6.698;2022-10-31T13:32:59;14.93;;;6.73;;
9898;SDS011;4988;49.238;6.698;2022-10-31T13:35:37;17.47;;;7.37;;
9898;SDS011;4988;49.238;6.698;2022-10-31T13:41:04;18.77;;;7.27;;
9898;SDS011;4988;49.238;6.698;2022-10-31T13:51:50;18.30;;;7.43;;
9898;SDS011;4988;49.238;6.698;2022-10-31T13:54:31;20.67;;;7.30;;
9898;SDS011;4988;49.238;6.698;2022-10-31T13:56:58;27.70;;;8.87;;
9898;SDS011;4988;49.238;6.698;2022-10-31T13:59:25;17.37;;;7.00;;
9898;SDS011;4988;49.238;6.698;2022-10-31T14:01:56;23.93;;;7.83;;
9898;SDS011;4988;49.238;6.698;2022-10-31T14:04:25;22.13;;;8.13;;
9898;SDS011;4988;49.238;6.698;2022-10-31T14:06:57;16.67;;;7.33;;
9898;SDS011;4988;49.238;6.698;2022-10-31T14:09:32;17.77;;;6.90;;
9898;SDS011;4988;49.238;6.698;2022-10-31T14:12:02;20.73;;;7.67;;
9898;SDS011;4988;49.238;6.698;2022-10-31T14:14:32;21.63;;;8.50;;
9898;SDS011;4988;49.238;6.698;2022-10-31T14:17:04;19.80;;;8.07;;
9898;SDS011;4988;49.238;6.698;2022-10-31T14:19:31;20.67;;;7.73;;
9898;SDS011;4988;49.238;6.698;2022-10-31T14:21:56;15.60;;;6.80;;
9898;SDS011;4988;49.238;6.698;2022-10-31T14:29:21;15.77;;;6.83;;
9898;SDS011;4988;49.238;6.698;2022-10-31T14:49:15;20.40;;;7.40;;
9898;SDS011;4988;49.238;6.698;2022-10-31T14:52:14;26.63;;;9.17;;
9898;SDS011;4988;49.238;6.698;2022-10-31T14:54:44;21.13;;;8.10;;
9898;SDS011;4988;49.238;6.698;2022-10-31T14:57:19;19.07;;;7.57;;
9898;SDS011;4988;49.238;6.698;2022-10-31T14:59:55;30.07;;;11.53;;
9898;SDS011;4988;49.238;6.698;2022-10-31T15:02:29;19.97;;;8.10;;
9898;SDS011;4988;49.238;6.698;2022-10-31T15:05:05;17.10;;;7.20;;
9898;SDS011;4988;49.238;6.698;2022-10-31T15:07:33;16.50;;;6.90;;
9898;SDS011;4988;49.238;6.698;2022-10-31T15:10:03;10.77;;;6.30;;
9898;SDS011;4988;49.238;6.698;2022-10-31T15:12:32;16.53;;;7.10;;
9898;SDS011;4988;49.238;6.698;2022-10-31T15:15:21;18.67;;;7.10;;
9898;SDS011;4988;49.238;6.698;2022-10-31T15:17:57;17.70;;;7.17;;
9898;SDS011;4988;49.238;6.698;2022-10-31T15:20:25;13.73;;;7.27;;
9898;SDS011;4988;49.238;6.698;2022-10-31T15:22:53;23.57;;;7.67;;
9898;SDS011;4988;49.238;6.698;2022-10-31T15:25:22;19.33;;;7.40;;
9898;SDS011;4988;49.238;6.698;2022-10-31T15:27:50;12.93;;;7.03;;
9898;SDS011;4988;49.238;6.698;2022-10-31T15:30:26;14.97;;;7.30;;
9898;SDS011;4988;49.238;6.698;2022-10-31T15:32:53;13.40;;;6.93;;
9898;SDS011;4988;49.238;6.698;2022-10-31T15:35:20;12.83;;;6.67;;
9898;SDS011;4988;49.238;6.698;2022-10-31T15:37:51;15.27;;;7.10;;
9898;SDS011;4988;49.238;6.698;2022-10-31T15:40:18;14.70;;;7.27;;
9898;SDS011;4988;49.238;6.698;2022-10-31T15:42:50;19.03;;;8.10;;
9898;SDS011;4988;49.238;6.698;2022-10-31T15:45:23;25.27;;;9.97;;
9898;SDS011;4988;49.238;6.698;2022-10-31T15:47:55;38.37;;;13.30;;
9898;SDS011;4988;49.238;6.698;2022-10-31T15:53:05;29.57;;;11.70;;
9898;SDS011;4988;49.238;6.698;2022-10-31T15:55:47;35.83;;;11.87;;
9898;SDS011;4988;49.238;6.698;2022-10-31T15:58:16;28.07;;;11.60;;
9898;SDS011;4988;49.238;6.698;2022-10-31T16:00:42;28.77;;;11.83;;
9898;SDS011;4988;49.238;6.698;2022-10-31T16:05:46;29.23;;;12.97;;
9898;SDS011;4988;49.238;6.698;2022-10-31T16:13:35;26.00;;;11.33;;
9898;SDS011;4988;49.238;6.698;2022-10-31T16:16:03;22.20;;;10.67;;
9898;SDS011;4988;49.238;6.698;2022-10-31T16:18:37;18.27;;;9.53;;
9898;SDS011;4988;49.238;6.698;2022-10-31T16:21:05;22.07;;;9.80;;
9898;SDS011;4988;49.238;6.698;2022-10-31T16:23:31;20.53;;;9.30;;
9898;SDS011;4988;49.238;6.698;2022-10-31T16:25:56;19.97;;;9.07;;
9898;SDS011;4988;49.238;6.698;2022-10-31T16:28:23;21.13;;;8.40;;
9898;SDS011;4988;49.238;6.698;2022-10-31T16:30:52;22.13;;;9.30;;
9898;SDS011;4988;49.238;6.698;2022-10-31T16:33:26;19.60;;;9.07;;
9898;SDS011;4988;49.238;6.698;2022-10-31T16:35:52;19.60;;;8.70;;
9898;SDS011;4988;49.238;6.698;2022-10-31T16:38:18;19.90;;;9.30;;
9898;SDS011;4988;49.238;6.698;2022-10-31T16:40:44;24.07;;;9.93;;
9898;SDS011;4988;49.238;6.698;2022-10-31T16:43:14;19.37;;;9.77;;
9898;SDS011;4988;49.238;6.698;2022-10-31T16:45:46;36.90;;;17.77;;
9898;SDS011;4988;49.238;6.698;2022-10-31T16:48:22;32.77;;;17.30;;
9898;SDS011;4988;49.238;6.698;2022-10-31T16:50:48;31.37;;;14.37;;
9898;SDS011;4988;49.238;6.698;2022-10-31T16:53:15;41.97;;;23.73;;
9898;SDS011;4988;49.238;6.698;2022-10-31T16:55:46;31.30;;;17.13;;
9898;SDS011;4988;49.238;6.698;2022-10-31T16:58:16;36.50;;;18.53;;
9898;SDS011;4988;49.238;6.698;2022-10-31T17:00:45;37.23;;;18.53;;
9898;SDS011;4988;49.238;6.698;2022-10-31T17:03:11;37.40;;;17.63;;
9898;SDS011;4988;49.238;6.698;2022-10-31T17:05:37;27.37;;;13.20;;
9898;SDS011;4988;49.238;6.698;2022-10-31T17:08:02;24.67;;;12.80;;
9898;SDS011;4988;49.238;6.698;2022-10-31T17:10:28;30.03;;;16.00;;
9898;SDS011;4988;49.238;6.698;2022-10-31T17:12:54;32.73;;;16.50;;
9898;SDS011;4988;49.238;6.698;2022-10-31T17:15:22;33.73;;;17.43;;
9898;SDS011;4988;49.238;6.698;2022-10-31T17:17:50;33.33;;;17.03;;
9898;SDS011;4988;49.238;6.698;2022-10-31T17:22:44;33.20;;;16.40;;
9898;SDS011;4988;49.238;6.698;2022-10-31T17:25:12;28.67;;;16.10;;
9898;SDS011;4988;49.238;6.698;2022-10-31T17:27:40;34.30;;;18.93;;
9898;SDS011;4988;49.238;6.698;2022-10-31T17:30:05;36.90;;;19.27;;
9898;SDS011;4988;49.238;6.698;2022-10-31T17:32:31;37.93;;;21.27;;
9898;SDS011;4988;49.238;6.698;2022-10-31T17:34:56;45.27;;;22.23;;
9898;SDS011;4988;49.238;6.698;2022-10-31T17:37:22;30.83;;;17.90;;
9898;SDS011;4988;49.238;6.698;2022-10-31T17:39:47;33.47;;;18.23;;
9898;SDS011;4988;49.238;6.698;2022-10-31T17:42:12;34.10;;;18.10;;
9898;SDS011;4988;49.238;6.698;2022-10-31T17:44:38;33.93;;;18.73;;
9898;SDS011;4988;49.238;6.698;2022-10-31T17:47:03;35.13;;;18.03;;
9898;SDS011;4988;49.238;6.698;2022-10-31T17:49:28;40.80;;;23.47;;
9898;SDS011;4988;49.238;6.698;2022-10-31T17:51:54;41.93;;;19.93;;